Gravelotte Airport


Codes: FAGV/
Name: Gravelotte Airport
City: Gravelotte
Country: South Africa
Elevation: 1650 ft.

Photos at Gravelotte Airport


   Photos courtesy of SpottingLog. You can add your own sightings and photos by signing up for a free trial today.



No photos found.

Weather at Gravelotte Airport


Time (UTC)DescriptionTempratureWindCloud coverageVisibilityPressureHumidity
25-Jun-2024 12:00Broken Clouds25°C7 mph, E56%10000m1024hPa31%
25-Jun-2024 15:00Scattered Clouds24°C4 mph, E38%10000m1024hPa33%
25-Jun-2024 18:00Scattered Clouds20°C4 mph, SE28%10000m1026hPa45%
25-Jun-2024 21:00Few Clouds15°C4 mph, S12%10000m1028hPa69%
26-Jun-2024 00:00Light Rain15°C9 mph, SE32%10000m1027hPa83%
26-Jun-2024 03:00Light Rain15°C7 mph, SE26%10000m1028hPa86%
26-Jun-2024 06:00Few Clouds16°C7 mph, SE20%10000m1029hPa73%
26-Jun-2024 09:00Broken Clouds20°C9 mph, SE66%10000m1029hPa52%
26-Jun-2024 12:00Broken Clouds22°C13 mph, SE78%10000m1026hPa41%
26-Jun-2024 15:00Broken Clouds20°C11 mph, E63%10000m1026hPa53%
26-Jun-2024 18:00Scattered Clouds16°C4 mph, E36%10000m1029hPa77%
26-Jun-2024 21:00Light Rain14°C4 mph, SE1%10000m1029hPa89%
27-Jun-2024 00:00Light Rain13°C7 mph, SE2%10000m1029hPa94%
27-Jun-2024 03:00Overcast Clouds15°C9 mph, SE89%10000m1029hPa79%
27-Jun-2024 06:00Overcast Clouds16°C7 mph, S94%10000m1031hPa75%
27-Jun-2024 09:00Broken Clouds21°C11 mph, SE75%10000m1030hPa45%
27-Jun-2024 12:00Broken Clouds23°C11 mph, E70%10000m1027hPa42%
27-Jun-2024 15:00Broken Clouds21°C11 mph, E56%10000m1027hPa53%
27-Jun-2024 18:00Broken Clouds19°C9 mph, SE73%10000m1029hPa61%
27-Jun-2024 21:00Light Rain17°C9 mph, SE99%10000m1030hPa75%
28-Jun-2024 00:00Light Rain15°C7 mph, SE74%10000m1029hPa93%
28-Jun-2024 03:00Scattered Clouds15°C2 mph, SE40%10000m1029hPa91%
28-Jun-2024 06:00Light Rain16°C2 mph, SE65%10000m1030hPa82%
28-Jun-2024 09:00Overcast Clouds20°C7 mph, E87%10000m1028hPa57%
28-Jun-2024 12:00Broken Clouds22°C4 mph, E76%10000m1025hPa41%
28-Jun-2024 15:00Overcast Clouds21°C2 mph, NE92%10000m1024hPa43%
28-Jun-2024 18:00Broken Clouds16°C2 mph, NE65%10000m1026hPa57%
28-Jun-2024 21:00Clear Sky15°C2 mph, SW4%10000m1026hPa65%
29-Jun-2024 00:00Clear Sky13°C4 mph, SW2%10000m1025hPa71%
29-Jun-2024 03:00Clear Sky12°C4 mph, SW0%10000m1025hPa77%
29-Jun-2024 06:00Clear Sky15°C2 mph, W0%10000m1025hPa64%
29-Jun-2024 09:00Clear Sky22°C4 mph, NW2%10000m1023hPa40%
29-Jun-2024 12:00Clear Sky25°C4 mph, N1%10000m1019hPa32%
29-Jun-2024 15:00Clear Sky22°C7 mph, NE2%10000m1019hPa38%
29-Jun-2024 18:00Clear Sky18°C4 mph, N1%10000m1021hPa54%
29-Jun-2024 21:00Clear Sky16°C4 mph, NW2%10000m1021hPa60%
30-Jun-2024 00:00Clear Sky15°C2 mph, W3%10000m1020hPa63%
30-Jun-2024 03:00Clear Sky14°C4 mph, W1%10000m1019hPa63%
30-Jun-2024 06:00Clear Sky17°C4 mph, W1%10000m1020hPa49%
30-Jun-2024 09:00Clear Sky26°C7 mph, SW0%10000m1019hPa25%